Time;durP1;ratioP1;P1;durP2;ratioP2;P2;SDS_P1;SDS_P2;PMS_P1;PMS_P2;Temp;Humidity;BMP_temperature;BMP_pressure;BME280_temperature;BME280_humidity;BME280_pressure;Samples;Min_cycle;Max_cycle;Signal;HPM_P1;HPM_P2
2021/05/02 00:01:23;;;;;;;23.10;16.85;;;8.20;99.90;;;;;;4994794;28;20481;-61
2021/05/02 00:03:50;;;;;;;20.77;15.55;;;8.20;99.90;;;;;;4996355;28;20453;-63
2021/05/02 00:06:17;;;;;;;22.15;14.60;;;8.10;99.90;;;;;;4995824;28;20453;-61
2021/05/02 00:08:45;;;;;;;20.20;14.40;;;8.20;99.90;;;;;;4995753;28;20417;-61
2021/05/02 00:11:13;;;;;;;20.40;14.45;;;8.20;99.90;;;;;;4995205;28;21021;-61
2021/05/02 00:13:43;;;;;;;17.17;13.48;;;8.10;99.90;;;;;;4996888;28;20457;-61
2021/05/02 00:16:10;;;;;;;16.23;12.60;;;8.10;99.90;;;;;;4995017;28;20418;-61
2021/05/02 00:18:38;;;;;;;17.83;12.85;;;8.20;99.90;;;;;;4996019;28;20480;-61
2021/05/02 00:21:08;;;;;;;17.70;12.38;;;8.10;99.90;;;;;;4995668;28;20445;-61
2021/05/02 00:24:01;;;;;;;14.52;11.60;;;8.00;99.90;;;;;;4995374;28;20462;-62
2021/05/02 00:26:29;;;;;;;17.67;12.27;;;8.10;99.90;;;;;;4996026;28;20426;-61
2021/05/02 00:28:59;;;;;;;16.92;11.70;;;7.90;99.90;;;;;;4995908;28;20798;-61
2021/05/02 00:31:27;;;;;;;15.85;11.20;;;8.00;99.90;;;;;;4993134;28;20445;-62
2021/05/02 00:33:55;;;;;;;16.42;11.18;;;8.00;99.90;;;;;;4996018;28;20423;-61
2021/05/02 00:36:23;;;;;;;17.30;11.70;;;8.00;99.90;;;;;;5000076;28;20427;-62
2021/05/02 00:38:51;;;;;;;15.80;11.80;;;7.90;99.90;;;;;;5008666;28;20437;-61
2021/05/02 00:41:28;;;;;;;14.90;11.10;;;8.00;99.90;;;;;;5007596;28;20948;-61
2021/05/02 00:43:57;;;;;;;15.10;11.70;;;8.00;99.90;;;;;;4994621;28;20442;-60
2021/05/02 00:46:30;;;;;;;14.90;11.15;;;8.00;99.90;;;;;;4993521;28;20422;-61
2021/05/02 00:49:04;;;;;;;14.20;10.80;;;8.00;99.90;;;;;;4994158;28;20415;-61
2021/05/02 00:51:40;;;;;;;15.55;10.52;;;8.10;99.90;;;;;;4993971;28;20437;-61
2021/05/02 00:54:20;;;;;;;14.27;10.82;;;8.00;99.90;;;;;;4994024;28;20413;-60
2021/05/02 00:57:00;;;;;;;13.02;9.90;;;8.10;99.90;;;;;;4994017;28;20410;-61
2021/05/02 00:59:43;;;;;;;14.00;10.30;;;8.00;99.90;;;;;;4993646;28;20445;-61
2021/05/02 01:02:37;;;;;;;14.10;10.95;;;7.90;99.90;;;;;;4993084;28;20422;-62
2021/05/02 01:05:07;;;;;;;16.42;10.70;;;7.90;99.90;;;;;;4994022;28;20423;-61
2021/05/02 01:07:36;;;;;;;12.60;9.90;;;7.90;99.90;;;;;;4995285;28;20476;-61
2021/05/02 01:10:08;;;;;;;13.20;11.00;;;7.90;99.90;;;;;;4993681;28;20818;-61
2021/05/02 01:12:42;;;;;;;12.13;10.55;;;7.90;99.90;;;;;;4993827;28;20427;-61
2021/05/02 01:15:12;;;;;;;13.30;10.98;;;7.90;99.90;;;;;;4993437;28;20961;-60
2021/05/02 01:17:43;;;;;;;16.00;11.95;;;7.80;99.90;;;;;;4993381;28;20423;-61
2021/05/02 01:20:14;;;;;;;13.93;10.25;;;7.80;99.90;;;;;;4994194;28;20770;-61
2021/05/02 01:22:43;;;;;;;14.50;11.57;;;7.90;99.90;;;;;;4994840;28;20422;-61
2021/05/02 01:25:13;;;;;;;12.80;10.73;;;7.90;99.90;;;;;;4995290;28;20487;-61
2021/05/02 01:27:41;;;;;;;15.05;11.13;;;8.00;99.90;;;;;;4996107;28;20403;-61
2021/05/02 01:30:11;;;;;;;15.90;11.70;;;7.90;99.90;;;;;;4994059;28;20432;-61
2021/05/02 01:32:39;;;;;;;16.15;12.13;;;7.80;99.90;;;;;;4992871;28;20782;-61
2021/05/02 01:38:00;;;;;;;15.20;11.70;;;7.80;99.90;;;;;;4994996;28;20458;-60
2021/05/02 01:40:29;;;;;;;15.73;12.13;;;7.80;99.90;;;;;;4995444;28;20896;-61
2021/05/02 01:42:56;;;;;;;17.40;12.68;;;7.80;99.90;;;;;;5007439;23;20397;-61
2021/05/02 01:45:24;;;;;;;17.63;13.15;;;7.70;99.90;;;;;;4972375;28;20452;-62
2021/05/02 01:47:59;;;;;;;21.20;13.55;;;7.70;99.90;;;;;;4976242;28;20507;-62
2021/05/02 01:50:28;;;;;;;17.05;13.15;;;7.70;99.90;;;;;;4991354;23;20494;-63
2021/05/02 01:52:56;;;;;;;17.67;12.85;;;7.70;99.90;;;;;;4977360;28;21010;-63
2021/05/02 01:55:24;;;;;;;17.55;13.00;;;7.70;99.90;;;;;;4960078;28;20778;-62
2021/05/02 01:57:53;;;;;;;538.53;213.33;;;7.80;99.90;;;;;;4978177;28;20187;-63
2021/05/02 02:00:39;;;;;;;581.72;372.98;;;7.80;99.90;;;;;;4976986;28;20467;-62
2021/05/02 02:03:10;;;;;;;575.03;427.30;;;7.80;99.90;;;;;;4978391;28;20410;-62
2021/05/02 02:05:39;;;;;;;547.22;448.90;;;7.90;99.90;;;;;;4994541;28;20506;-62
2021/05/02 02:08:09;;;;;;;521.03;200.73;;;7.80;99.90;;;;;;4979903;28;20196;-66
2021/05/02 02:10:37;;;;;;;596.63;409.23;;;7.80;99.90;;;;;;4994496;28;20465;-62
2021/05/02 02:13:10;;;;;;;586.60;451.70;;;7.80;99.90;;;;;;4994679;28;20457;-63
2021/05/02 02:15:38;;;;;;;565.97;474.83;;;7.90;99.90;;;;;;4993726;28;20558;-63
2021/05/02 02:18:07;;;;;;;542.95;484.25;;;7.90;99.90;;;;;;4995641;28;20406;-63
2021/05/02 02:20:40;;;;;;;559.97;507.55;;;7.90;99.90;;;;;;4995365;28;20411;-63
2021/05/02 02:23:15;;;;;;;553.20;503.00;;;8.00;99.90;;;;;;4995381;28;20412;-63
2021/05/02 02:25:45;;;;;;;546.15;501.33;;;8.00;99.90;;;;;;4995590;28;20539;-63
2021/05/02 02:28:16;;;;;;;526.77;191.37;;;7.90;99.90;;;;;;4995896;28;20186;-62
2021/05/02 02:30:48;;;;;;;569.97;385.92;;;7.80;99.90;;;;;;4994417;28;20422;-62
2021/05/02 02:33:19;;;;;;;514.72;464.33;;;7.80;99.90;;;;;;4995464;28;20421;-62
2021/05/02 02:35:51;;;;;;;518.70;469.00;;;7.80;99.90;;;;;;4995385;28;20426;-64
2021/05/02 02:38:20;;;;;;;539.40;491.63;;;7.80;99.90;;;;;;4995485;28;20402;-61
2021/05/02 02:40:50;;;;;;;507.27;481.70;;;7.70;99.90;;;;;;4995243;28;20422;-61
2021/05/02 02:43:23;;;;;;;494.43;194.80;;;7.70;99.90;;;;;;4995387;28;20193;-61
2021/05/02 02:45:54;;;;;;;451.17;402.33;;;7.70;99.90;;;;;;4994199;28;20513;-65
2021/05/02 02:48:23;;;;;;;512.28;464.10;;;7.70;99.90;;;;;;4995372;28;20485;-62
2021/05/02 02:50:52;;;;;;;473.70;190.77;;;7.50;99.90;;;;;;4996833;28;20251;-62
2021/05/02 02:53:21;;;;;;;464.33;426.38;;;7.60;99.90;;;;;;4995099;28;20755;-65
2021/05/02 02:56:01;;;;;;;509.95;474.95;;;7.60;99.90;;;;;;4994180;28;20429;-62
2021/05/02 02:58:35;;;;;;;516.13;185.20;;;7.60;99.90;;;;;;4962455;28;20226;-63
2021/05/02 03:01:06;;;;;;;451.00;402.98;;;7.60;99.90;;;;;;4992895;28;20764;-65
2021/05/02 03:03:35;;;;;;;516.42;472.92;;;7.60;99.90;;;;;;4994726;28;20806;-62
2021/05/02 03:06:04;;;;;;;525.58;488.17;;;7.70;99.90;;;;;;4993506;28;20445;-62
2021/05/02 03:08:32;;;;;;;521.03;485.50;;;7.60;99.90;;;;;;4994936;28;20445;-63
2021/05/02 03:11:25;;;;;;;526.67;182.63;;;7.60;99.90;;;;;;4995638;28;20518;-62
2021/05/02 03:13:54;;;;;;;555.35;362.20;;;7.50;99.90;;;;;;4977253;28;20429;-62
2021/05/02 03:16:24;;;;;;;490.65;440.50;;;7.50;99.90;;;;;;4976045;28;20443;-62
2021/05/02 03:18:59;;;;;;;530.73;182.03;;;7.50;99.90;;;;;;4994623;28;20195;-62
2021/05/02 03:21:32;;;;;;;55.60;49.88;;;7.40;99.90;;;;;;4993126;28;20414;-62
2021/05/02 03:24:06;;;;;;;28.80;26.02;;;7.40;99.90;;;;;;4994581;28;20887;-62
2021/05/02 03:26:35;;;;;;;38.67;36.00;;;7.40;99.90;;;;;;4977015;28;20410;-62
2021/05/02 03:29:04;;;;;;;40.63;37.43;;;7.40;99.90;;;;;;4993482;28;20414;-62
2021/05/02 03:31:33;;;;;;;528.57;180.90;;;7.40;99.90;;;;;;4994801;28;20573;-64
2021/05/02 03:34:04;;;;;;;596.05;359.20;;;7.40;99.90;;;;;;4993883;28;20458;-65
2021/05/02 03:36:34;;;;;;;604.15;422.85;;;7.40;99.90;;;;;;4994396;28;20948;-65
2021/05/02 03:39:05;;;;;;;598.85;436.65;;;7.50;99.90;;;;;;4992938;28;20922;-61
2021/05/02 03:41:34;;;;;;;591.20;446.40;;;7.50;99.90;;;;;;4994583;28;20813;-62
2021/05/02 03:44:04;;;;;;;577.80;474.48;;;7.50;99.90;;;;;;4994528;28;20453;-62
2021/05/02 03:46:33;;;;;;;548.45;489.45;;;7.70;99.90;;;;;;4993731;28;20438;-62
2021/05/02 03:49:03;;;;;;;536.97;477.73;;;7.70;99.90;;;;;;4973684;28;20471;-62
2021/05/02 03:51:34;;;;;;;550.28;479.17;;;7.70;99.90;;;;;;4975181;28;20427;-65
2021/05/02 03:54:02;;;;;;;540.83;460.73;;;7.60;99.90;;;;;;4975094;28;20419;-62
2021/05/02 03:56:34;;;;;;;538.90;450.80;;;7.50;99.90;;;;;;4974663;28;20420;-63
2021/05/02 03:59:13;;;;;;;510.92;447.77;;;7.30;99.90;;;;;;4973544;28;20474;-62
2021/05/02 04:01:49;;;;;;;495.17;442.40;;;7.20;99.90;;;;;;4974149;28;20440;-64
2021/05/02 04:04:20;;;;;;;491.35;440.10;;;7.10;99.90;;;;;;4974718;28;20455;-65
2021/05/02 04:06:48;;;;;;;495.20;445.00;;;7.00;99.90;;;;;;4974650;28;20840;-62
2021/05/02 04:09:16;;;;;;;507.90;458.60;;;7.10;99.90;;;;;;4974457;28;20458;-62
2021/05/02 04:11:45;;;;;;;508.33;460.27;;;7.00;99.90;;;;;;4974676;28;20892;-62
2021/05/02 04:14:15;;;;;;;513.90;462.50;;;7.10;99.90;;;;;;4973461;28;20539;-62
2021/05/02 04:16:43;;;;;;;529.03;476.23;;;6.90;99.90;;;;;;4973919;28;20457;-62
2021/05/02 04:19:11;;;;;;;568.00;471.38;;;6.90;99.90;;;;;;4974699;28;20435;-63
2021/05/02 04:21:39;;;;;;;559.53;460.15;;;6.90;99.90;;;;;;4976008;28;20422;-64
2021/05/02 04:24:07;;;;;;;535.50;451.80;;;6.80;99.90;;;;;;4976037;28;20667;-64
2021/05/02 04:26:35;;;;;;;517.05;462.05;;;6.70;99.90;;;;;;4975665;28;20416;-64
2021/05/02 04:29:03;;;;;;;559.70;203.90;;;6.70;99.90;;;;;;4977189;28;20562;-63
2021/05/02 04:31:31;;;;;;;536.25;404.45;;;6.80;99.90;;;;;;4974808;28;20847;-62
2021/05/02 04:33:59;;;;;;;501.30;453.27;;;6.80;99.90;;;;;;4974816;28;20430;-63
2021/05/02 04:36:26;;;;;;;512.70;463.10;;;6.70;99.90;;;;;;4974566;28;20420;-61
2021/05/02 04:38:54;;;;;;;526.92;476.73;;;6.70;99.90;;;;;;4974121;28;20409;-62
2021/05/02 04:41:21;;;;;;;527.85;484.13;;;6.70;99.90;;;;;;4974337;28;20499;-65
2021/05/02 04:43:49;;;;;;;545.55;502.40;;;6.70;99.90;;;;;;4989207;28;20911;-61
2021/05/02 04:46:19;;;;;;;545.03;503.10;;;6.80;99.90;;;;;;4973613;28;20424;-62
2021/05/02 04:48:48;;;;;;;548.90;507.20;;;6.90;99.90;;;;;;4975682;28;20828;-61
2021/05/02 04:51:16;;;;;;;552.20;218.97;;;7.00;99.90;;;;;;4994954;28;20349;-62
2021/05/02 04:53:44;;;;;;;516.88;479.33;;;6.90;99.90;;;;;;4991970;28;20476;-61
2021/05/02 04:56:12;;;;;;;572.63;535.42;;;6.90;99.90;;;;;;4976032;28;20879;-62
2021/05/02 04:58:40;;;;;;;572.50;541.60;;;6.90;99.90;;;;;;4993245;28;20873;-61
2021/05/02 05:01:08;;;;;;;569.28;535.47;;;6.90;99.90;;;;;;4992672;28;20750;-62
2021/05/02 05:03:36;;;;;;;565.83;536.97;;;6.80;99.90;;;;;;4993700;28;20437;-64
2021/05/02 05:06:04;;;;;;;569.45;539.25;;;6.80;99.90;;;;;;4976056;28;20825;-61
2021/05/02 05:08:32;;;;;;;570.30;540.17;;;6.80;99.90;;;;;;4993125;28;20406;-61
2021/05/02 05:11:00;;;;;;;568.30;539.65;;;6.80;99.90;;;;;;4993293;28;20513;-61
2021/05/02 05:13:27;;;;;;;531.58;506.58;;;6.80;99.90;;;;;;4993247;28;20430;-63
2021/05/02 05:15:56;;;;;;;450.95;431.52;;;6.80;99.90;;;;;;4974933;28;20834;-62
2021/05/02 05:18:25;;;;;;;390.07;373.57;;;6.90;99.90;;;;;;4993035;28;20751;-62
2021/05/02 05:20:57;;;;;;;82.97;78.18;;;6.80;99.90;;;;;;4976844;28;20468;-62
2021/05/02 05:23:26;;;;;;;159.43;152.32;;;6.70;99.90;;;;;;4997042;28;20426;-62
2021/05/02 05:25:54;;;;;;;226.85;217.43;;;6.80;99.90;;;;;;4979839;28;20461;-62
2021/05/02 05:28:23;;;;;;;265.17;254.70;;;6.70;99.90;;;;;;4979996;28;20441;-61
2021/05/02 05:31:16;;;;;;;262.67;252.27;;;6.80;99.90;;;;;;4995900;28;20414;-62
2021/05/02 05:33:44;;;;;;;242.80;233.15;;;6.90;99.90;;;;;;4997356;28;20419;-62
2021/05/02 05:36:12;;;;;;;435.25;417.55;;;6.90;99.90;;;;;;4996345;28;20426;-62
2021/05/02 05:38:40;;;;;;;441.75;423.38;;;6.90;99.90;;;;;;4997445;28;20425;-62
2021/05/02 05:41:08;;;;;;;439.38;421.00;;;6.80;99.90;;;;;;4997071;28;20461;-61
2021/05/02 05:43:35;;;;;;;437.38;419.42;;;6.80;99.90;;;;;;4996009;28;20477;-63
2021/05/02 05:46:03;;;;;;;394.08;378.20;;;6.90;99.90;;;;;;4996187;28;20433;-62
2021/05/02 05:48:33;;;;;;;353.05;339.25;;;6.90;99.90;;;;;;4980583;28;20414;-62
2021/05/02 05:51:01;;;;;;;47.22;43.70;;;6.90;99.90;;;;;;4997544;28;20412;-62
2021/05/02 05:53:28;;;;;;;104.97;100.00;;;7.00;99.90;;;;;;4997804;28;20824;-63
2021/05/02 05:55:57;;;;;;;45.03;41.72;;;7.00;99.90;;;;;;4997353;28;20423;-62
2021/05/02 05:58:26;;;;;;;43.75;40.65;;;6.90;99.90;;;;;;4997015;28;20448;-62
2021/05/02 06:00:54;;;;;;;40.97;37.90;;;6.90;99.90;;;;;;4996065;28;20474;-61
2021/05/02 06:03:22;;;;;;;57.60;54.28;;;6.90;99.90;;;;;;4997274;28;20527;-62
2021/05/02 06:05:50;;;;;;;188.85;181.45;;;6.80;99.90;;;;;;4979539;28;20751;-62
2021/05/02 06:08:17;;;;;;;201.90;193.73;;;6.80;99.90;;;;;;4996967;28;20493;-61
2021/05/02 06:10:46;;;;;;;452.13;432.73;;;6.80;99.90;;;;;;4979427;28;20472;-62
2021/05/02 06:13:18;;;;;;;380.35;365.02;;;6.80;99.90;;;;;;4996494;28;20536;-62
2021/05/02 06:15:46;;;;;;;363.38;348.80;;;7.00;99.90;;;;;;4994167;28;20417;-61
2021/05/02 06:18:13;;;;;;;295.77;284.58;;;7.10;99.90;;;;;;4996399;28;20472;-62
2021/05/02 06:20:41;;;;;;;288.27;277.48;;;7.20;99.90;;;;;;4996267;28;20449;-63
2021/05/02 06:23:08;;;;;;;282.33;271.83;;;7.20;99.90;;;;;;4997429;28;20758;-63
2021/05/02 06:25:36;;;;;;;226.20;217.70;;;7.20;99.90;;;;;;4999214;28;20422;-62
2021/05/02 06:28:04;;;;;;;189.95;182.45;;;7.30;99.90;;;;;;5001593;28;20415;-62
2021/05/02 06:30:33;;;;;;;164.27;157.75;;;7.30;99.90;;;;;;4997806;28;20472;-63
2021/05/02 06:33:01;;;;;;;182.00;175.07;;;7.30;99.90;;;;;;4997397;28;20441;-62
2021/05/02 06:35:29;;;;;;;170.57;163.88;;;7.30;99.90;;;;;;5000812;28;20433;-62
2021/05/02 06:38:21;;;;;;;148.52;142.73;;;7.20;99.90;;;;;;4999749;28;20422;-61
2021/05/02 06:40:49;;;;;;;142.87;137.27;;;7.30;99.90;;;;;;4996994;28;20476;-61
2021/05/02 06:43:21;;;;;;;243.02;233.90;;;7.50;99.90;;;;;;4994609;28;20740;-62
2021/05/02 06:45:49;;;;;;;247.23;238.32;;;7.70;99.90;;;;;;4994506;28;20746;-62
2021/05/02 06:48:17;;;;;;;218.73;210.68;;;7.70;99.90;;;;;;4996264;28;20487;-62
2021/05/02 06:50:45;;;;;;;114.47;109.85;;;7.80;99.90;;;;;;4996018;28;20989;-62
2021/05/02 06:53:12;;;;;;;115.13;110.32;;;7.60;99.90;;;;;;4995054;28;20442;-62
2021/05/02 06:55:42;;;;;;;157.85;151.65;;;7.60;99.90;;;;;;4977794;28;20465;-61
2021/05/02 06:58:13;;;;;;;265.90;256.10;;;7.60;99.90;;;;;;4996468;28;20490;-62
2021/05/02 07:00:41;;;;;;;178.02;170.60;;;7.90;99.90;;;;;;4997961;28;20465;-61
2021/05/02 07:03:11;;;;;;;165.32;158.93;;;7.90;99.90;;;;;;4995244;28;20446;-64
2021/05/02 07:05:43;;;;;;;146.02;140.02;;;7.70;99.90;;;;;;4995095;28;20477;-61
2021/05/02 07:08:10;;;;;;;109.22;104.22;;;7.70;99.90;;;;;;4995226;28;20430;-61
2021/05/02 07:10:38;;;;;;;119.57;114.68;;;7.60;99.90;;;;;;4994182;28;20449;-62
2021/05/02 07:13:06;;;;;;;97.85;93.65;;;7.70;99.90;;;;;;4994764;28;20430;-62
2021/05/02 07:15:34;;;;;;;89.53;85.32;;;7.70;99.90;;;;;;4993854;28;20419;-62
2021/05/02 07:18:01;;;;;;;99.93;95.53;;;7.60;99.90;;;;;;4995375;28;20499;-61
2021/05/02 07:20:29;;;;;;;76.88;72.95;;;7.60;99.90;;;;;;4995665;28;20413;-61
2021/05/02 07:22:57;;;;;;;74.40;70.95;;;7.70;99.90;;;;;;4995007;28;20544;-62
2021/05/02 07:25:26;;;;;;;65.18;61.28;;;7.80;99.90;;;;;;4993575;28;20453;-61
2021/05/02 07:27:54;;;;;;;56.70;53.60;;;7.80;99.90;;;;;;4995151;28;20913;-61
2021/05/02 07:30:22;;;;;;;47.42;44.22;;;7.80;99.90;;;;;;4993791;28;20576;-61
2021/05/02 07:32:50;;;;;;;37.83;35.05;;;7.90;99.90;;;;;;4993945;28;20945;-62
2021/05/02 07:35:18;;;;;;;43.40;40.50;;;7.90;99.90;;;;;;4977626;28;20418;-62
2021/05/02 07:37:46;;;;;;;44.13;41.22;;;7.90;99.90;;;;;;4993667;28;20423;-61
2021/05/02 07:40:15;;;;;;;37.87;35.17;;;8.00;99.90;;;;;;4995056;28;20759;-62
2021/05/02 07:43:08;;;;;;;45.33;42.33;;;8.10;99.90;;;;;;4995730;28;20418;-62
2021/05/02 07:46:01;;;;;;;33.33;30.67;;;8.00;99.90;;;;;;4976858;28;20414;-62
2021/05/02 07:48:30;;;;;;;31.40;28.60;;;8.10;99.90;;;;;;4993715;28;20557;-65
2021/05/02 07:50:59;;;;;;;27.48;25.15;;;8.10;99.90;;;;;;4994349;28;20423;-62
2021/05/02 07:53:27;;;;;;;30.10;27.60;;;8.20;99.90;;;;;;4994133;28;20834;-61
2021/05/02 07:55:55;;;;;;;153.18;147.35;;;8.00;99.90;;;;;;4995696;28;20416;-63
2021/05/02 07:58:22;;;;;;;69.60;65.87;;;7.90;99.90;;;;;;4996461;28;20483;-62
2021/05/02 08:00:50;;;;;;;38.28;35.63;;;8.10;99.90;;;;;;4996887;28;20826;-61
2021/05/02 08:03:18;;;;;;;36.38;34.08;;;8.30;99.90;;;;;;4980785;28;20438;-62
2021/05/02 08:05:47;;;;;;;32.60;29.90;;;8.30;99.90;;;;;;4993856;28;20415;-62
2021/05/02 08:08:14;;;;;;;20.15;18.20;;;8.20;99.90;;;;;;4977229;28;20407;-61
2021/05/02 08:10:43;;;;;;;417.15;400.75;;;8.40;99.90;;;;;;4994439;28;20425;-62
2021/05/02 08:13:11;;;;;;;244.17;235.80;;;8.50;99.90;;;;;;4994391;28;20957;-62
2021/05/02 08:15:38;;;;;;;187.60;180.73;;;8.80;99.90;;;;;;4975412;28;20414;-62
2021/05/02 08:18:06;;;;;;;405.35;389.52;;;8.80;99.90;;;;;;4993923;28;20500;-64
2021/05/02 08:20:33;;;;;;;396.02;381.13;;;9.10;99.90;;;;;;4993593;28;20504;-62
2021/05/02 08:23:05;;;;;;;219.35;211.65;;;9.10;99.90;;;;;;4994196;28;20428;-62
2021/05/02 08:25:33;;;;;;;164.82;158.75;;;9.00;99.90;;;;;;4993565;28;20426;-63
2021/05/02 08:28:01;;;;;;;177.45;170.93;;;8.90;99.90;;;;;;4993146;28;20418;-63
2021/05/02 08:30:29;;;;;;;182.75;176.25;;;9.00;99.90;;;;;;4992917;28;20520;-63
2021/05/02 08:32:57;;;;;;;129.52;124.47;;;8.50;99.90;;;;;;4993801;28;20410;-65
2021/05/02 08:35:24;;;;;;;144.57;139.17;;;8.50;99.90;;;;;;4993983;28;20473;-63
2021/05/02 08:37:52;;;;;;;305.95;294.45;;;8.40;99.90;;;;;;4994814;28;20414;-62
2021/05/02 08:40:20;;;;;;;346.45;332.30;;;8.50;99.90;;;;;;4994449;28;20435;-63
2021/05/02 08:45:47;;;;;;;286.30;276.02;;;8.70;99.90;;;;;;4993550;28;20406;-63
2021/05/02 08:48:15;;;;;;;492.20;472.95;;;9.00;99.90;;;;;;4994618;28;20817;-63
2021/05/02 08:50:42;;;;;;;301.55;290.75;;;9.10;99.90;;;;;;4973368;28;20424;-63
2021/05/02 08:53:10;;;;;;;105.43;101.15;;;8.70;99.90;;;;;;4973056;28;20426;-63
2021/05/02 08:55:41;;;;;;;89.68;86.05;;;9.00;99.90;;;;;;4974618;28;20443;-64
2021/05/02 08:58:15;;;;;;;93.13;89.05;;;9.10;99.90;;;;;;4977973;28;20759;-63
2021/05/02 09:00:43;;;;;;;66.15;62.83;;;8.90;99.90;;;;;;4976860;28;20423;-64
2021/05/02 09:03:12;;;;;;;99.03;94.93;;;8.80;99.90;;;;;;4977887;28;20424;-63
2021/05/02 09:05:44;;;;;;;111.75;107.45;;;8.90;99.90;;;;;;4979260;28;20443;-63
2021/05/02 09:08:29;;;;;;;26.02;23.83;;;9.10;99.90;;;;;;4979668;28;20399;-63
2021/05/02 09:10:57;;;;;;;77.70;74.40;;;9.60;99.90;;;;;;4978422;28;20451;-63
2021/05/02 09:13:25;;;;;;;289.40;279.52;;;10.10;99.90;;;;;;4977789;28;20423;-63
2021/05/02 09:15:58;;;;;;;368.85;355.55;;;10.40;99.90;;;;;;4977584;28;20982;-63
2021/05/02 09:18:37;;;;;;;154.38;148.82;;;10.50;99.90;;;;;;4977629;28;20419;-68
2021/05/02 09:21:05;;;;;;;31.00;29.08;;;10.70;99.90;;;;;;4978680;28;20419;-64
2021/05/02 09:23:37;;;;;;;16.58;14.98;;;10.70;99.90;;;;;;4960737;28;20451;-63
2021/05/02 09:26:06;;;;;;;16.60;12.48;;;10.00;99.90;;;;;;4978809;28;20810;-64
2021/05/02 09:28:45;;;;;;;14.88;11.30;;;10.00;99.90;;;;;;4978630;28;20422;-64
2021/05/02 09:31:15;;;;;;;143.00;137.63;;;10.60;99.90;;;;;;4977657;28;20426;-64
2021/05/02 09:33:43;;;;;;;15.18;12.38;;;10.70;99.90;;;;;;4978318;28;20455;-64
2021/05/02 09:36:12;;;;;;;18.73;13.93;;;10.40;99.90;;;;;;4977250;28;20416;-63
2021/05/02 09:38:41;;;;;;;12.95;11.55;;;10.00;99.90;;;;;;4977990;28;20412;-67
2021/05/02 09:41:12;;;;;;;41.97;39.70;;;9.60;99.90;;;;;;4978139;28;20404;-64
2021/05/02 09:43:43;;;;;;;17.25;15.45;;;9.80;99.90;;;;;;4977628;28;20419;-63
2021/05/02 09:46:26;;;;;;;16.52;13.93;;;9.90;99.90;;;;;;4977518;28;20421;-64
2021/05/02 09:49:00;;;;;;;14.40;12.90;;;10.30;99.90;;;;;;4980150;28;20524;-63
2021/05/02 09:51:29;;;;;;;14.65;11.70;;;10.30;99.90;;;;;;4997274;28;20418;-64
2021/05/02 09:54:10;;;;;;;14.23;12.32;;;11.00;99.90;;;;;;4997217;28;20422;-63
2021/05/02 09:56:40;;;;;;;14.57;11.98;;;11.10;99.90;;;;;;4997289;28;20828;-63
2021/05/02 09:59:34;;;;;;;12.48;10.77;;;10.80;99.90;;;;;;4996970;28;20414;-63
2021/05/02 10:02:22;;;;;;;14.15;10.40;;;10.00;99.90;;;;;;4997544;28;20444;-67
2021/05/02 10:04:55;;;;;;;12.30;9.70;;;10.50;99.90;;;;;;4997023;28;20446;-62
2021/05/02 10:07:25;;;;;;;15.20;11.00;;;11.00;99.90;;;;;;4996806;28;20442;-62
2021/05/02 10:09:53;;;;;;;12.65;11.15;;;10.40;99.90;;;;;;4979383;28;20770;-63
2021/05/02 10:12:22;;;;;;;14.60;10.63;;;10.20;99.90;;;;;;4995387;28;20423;-63
2021/05/02 10:14:51;;;;;;;14.23;11.33;;;10.10;99.90;;;;;;4996777;28;20426;-64
2021/05/02 10:17:18;;;;;;;12.43;10.38;;;10.30;99.90;;;;;;4978735;28;20526;-63
2021/05/02 10:19:46;;;;;;;14.10;11.10;;;10.30;99.90;;;;;;4996728;28;20519;-63
2021/05/02 10:22:17;;;;;;;15.03;12.30;;;10.20;99.90;;;;;;4979404;28;20427;-63
2021/05/02 10:24:52;;;;;;;15.95;12.45;;;10.00;99.90;;;;;;4997168;28;20477;-63
2021/05/02 10:27:19;;;;;;;13.95;11.30;;;10.40;99.90;;;;;;4995154;28;20406;-63
2021/05/02 10:29:49;;;;;;;13.20;11.20;;;10.60;99.90;;;;;;4996670;28;20445;-62
2021/05/02 10:32:42;;;;;;;14.70;10.43;;;11.10;99.90;;;;;;4996482;28;20423;-63
2021/05/02 10:38:04;;;;;;;11.65;10.45;;;12.00;99.90;;;;;;4996399;28;20406;-65
2021/05/02 10:40:32;;;;;;;46.05;44.03;;;12.10;99.90;;;;;;4995942;28;20425;-61
2021/05/02 10:43:05;;;;;;;13.05;11.10;;;12.50;99.90;;;;;;4978635;28;20410;-63
2021/05/02 10:45:48;;;;;;;32.20;30.20;;;12.80;99.80;;;;;;4973782;28;20959;-63
2021/05/02 10:48:46;;;;;;;25.00;23.23;;;12.40;99.90;;;;;;4977634;28;20420;-63
2021/05/02 10:51:30;;;;;;;12.98;11.13;;;12.20;99.90;;;;;;4938636;29;20927;-64
2021/05/02 10:54:03;;;;;;;13.35;11.20;;;12.10;99.90;;;;;;4939677;29;20423;-64
2021/05/02 10:56:52;;;;;;;16.52;15.02;;;11.60;99.90;;;;;;4937180;29;20453;-63
2021/05/02 10:59:24;;;;;;;12.80;11.13;;;11.00;99.90;;;;;;4937824;29;20447;-63
2021/05/02 11:01:53;;;;;;;14.23;12.82;;;11.00;99.90;;;;;;4937480;28;20439;-66
2021/05/02 11:04:42;;;;;;;23.45;21.75;;;10.60;99.90;;;;;;4938102;29;20423;-66
2021/05/02 11:07:10;;;;;;;14.50;12.20;;;9.80;99.90;;;;;;4939960;29;20443;-66
2021/05/02 11:09:58;;;;;;;132.03;127.07;;;9.60;99.90;;;;;;4938801;29;20426;-63
2021/05/02 11:12:28;;;;;;;23.17;21.23;;;9.30;99.90;;;;;;4937758;29;20772;-64
2021/05/02 11:14:56;;;;;;;13.52;11.45;;;9.30;99.90;;;;;;4937729;29;20438;-64
2021/05/02 11:17:30;;;;;;;14.30;11.70;;;9.30;99.90;;;;;;4935869;28;20420;-63
2021/05/02 11:20:00;;;;;;;15.30;12.95;;;9.30;99.90;;;;;;4937236;29;20428;-63
2021/05/02 11:22:29;;;;;;;13.45;11.88;;;9.10;99.90;;;;;;4936409;29;20427;-63
2021/05/02 11:25:04;;;;;;;13.45;11.25;;;9.10;99.90;;;;;;4937777;29;20853;-63
2021/05/02 11:28:07;;;;;;;13.48;11.27;;;9.00;99.90;;;;;;4936424;29;20971;-63
2021/05/02 11:30:38;;;;;;;15.00;11.77;;;9.10;99.90;;;;;;4936443;28;20534;-64
2021/05/02 11:33:21;;;;;;;15.68;12.15;;;9.20;99.90;;;;;;4968129;28;20427;-63
2021/05/02 11:36:05;;;;;;;16.77;12.70;;;9.30;99.90;;;;;;4937335;29;20447;-66
2021/05/02 11:38:41;;;;;;;15.02;11.07;;;9.60;99.90;;;;;;4952139;29;20538;-66
2021/05/02 11:41:12;;;;;;;13.98;12.40;;;10.00;99.90;;;;;;4920487;29;20600;-63
2021/05/02 11:43:41;;;;;;;146.25;141.18;;;10.70;99.90;;;;;;4937132;29;20430;-63
2021/05/02 11:46:19;;;;;;;242.57;234.35;;;11.60;99.90;;;;;;4935915;28;20419;-63
2021/05/02 11:48:50;;;;;;;29.67;27.67;;;12.40;99.90;;;;;;4940563;28;20467;-63
2021/05/02 11:51:24;;;;;;;144.00;138.75;;;13.00;99.90;;;;;;4990748;28;20421;-63
2021/05/02 11:53:55;;;;;;;86.32;82.63;;;12.90;99.90;;;;;;4975166;28;20895;-64
2021/05/02 11:56:29;;;;;;;22.17;20.47;;;11.90;99.90;;;;;;5020454;23;20448;-61
2021/05/02 11:58:58;;;;;;;14.00;12.00;;;11.40;99.90;;;;;;5014096;28;20459;-61
2021/05/02 12:01:27;;;;;;;32.55;30.45;;;11.50;99.90;;;;;;5012888;28;20415;-60
2021/05/02 12:04:03;;;;;;;15.63;14.13;;;10.90;99.90;;;;;;5013537;28;20433;-61
2021/05/02 12:06:32;;;;;;;259.05;249.98;;;10.60;99.90;;;;;;5013695;28;20472;-63
2021/05/02 12:09:01;;;;;;;33.78;31.58;;;10.70;99.90;;;;;;5013475;28;20404;-61
2021/05/02 12:11:30;;;;;;;24.25;22.45;;;10.70;99.90;;;;;;5013283;28;20415;-61
2021/05/02 12:13:57;;;;;;;14.40;12.82;;;10.60;99.90;;;;;;5013269;28;20421;-61
2021/05/02 12:16:26;;;;;;;37.72;35.45;;;10.40;99.90;;;;;;5012496;28;20409;-62
2021/05/02 12:19:01;;;;;;;27.13;25.23;;;10.30;99.90;;;;;;5013669;28;20408;-62
2021/05/02 12:21:32;;;;;;;23.30;21.40;;;10.40;99.90;;;;;;5013823;28;20488;-61
2021/05/02 12:24:11;;;;;;;22.70;21.00;;;10.80;99.90;;;;;;4995729;28;20427;-62
2021/05/02 12:26:44;;;;;;;20.30;18.65;;;10.60;99.90;;;;;;5013280;28;20504;-62
2021/05/02 12:29:14;;;;;;;18.80;17.20;;;10.80;99.90;;;;;;5013396;28;20416;-62
2021/05/02 12:31:42;;;;;;;47.83;45.42;;;11.50;99.90;;;;;;5011653;28;20408;-61
2021/05/02 12:34:11;;;;;;;17.00;15.55;;;12.30;99.90;;;;;;5012424;28;20507;-61
2021/05/02 12:36:39;;;;;;;14.27;11.10;;;13.00;99.90;;;;;;5013223;28;20463;-61
2021/05/02 12:39:09;;;;;;;13.50;11.27;;;13.10;99.90;;;;;;5013568;28;20443;-61
2021/05/02 12:41:41;;;;;;;536.40;481.20;;;12.40;99.90;;;;;;5015172;28;20196;-61
2021/05/02 12:44:17;;;;;;;833.53;780.95;;;11.20;99.90;;;;;;4999323;28;20413;-63
2021/05/02 12:46:47;;;;;;;825.63;778.67;;;10.50;99.90;;;;;;5013527;28;20516;-63
2021/05/02 12:49:16;;;;;;;792.47;750.47;;;9.90;99.90;;;;;;5014704;28;20420;-61
2021/05/02 12:51:46;;;;;;;738.08;705.20;;;9.50;99.90;;;;;;5013591;28;20788;-61
2021/05/02 12:54:16;;;;;;;638.37;612.10;;;9.80;99.90;;;;;;5013250;28;20421;-61